Time;durP1;ratioP1;P1;durP2;ratioP2;P2;SDS_P1;SDS_P2;PMS_P1;PMS_P2;Temp;Humidity;BMP_temperature;BMP_pressure;BME280_temperature;BME280_humidity;BME280_pressure;Samples;Min_cycle;Max_cycle;Signal;HPM_P1;HPM_P2
2023/01/12 00:01:49;;;;;;;0.73;0.73;;;;;;;5.81;90.78;98903.44;5028335;28;20029;-78
2023/01/12 00:04:15;;;;;;;0.50;0.50;;;;;;;5.78;90.91;98904.31;5028490;28;20048;-76
2023/01/12 00:06:41;;;;;;;0.57;0.57;;;;;;;5.77;91.32;98888.91;5043062;28;20037;-76
2023/01/12 00:09:07;;;;;;;0.50;0.50;;;;;;;5.73;91.23;98876.94;5027819;28;20037;-76
2023/01/12 00:11:33;;;;;;;0.50;0.50;;;;;;;5.79;91.21;98890.59;5027982;28;20087;-75
2023/01/12 00:13:59;;;;;;;0.70;0.70;;;;;;;5.81;90.87;98888.00;5027978;28;20026;-77
2023/01/12 00:16:34;;;;;;;0.40;0.40;;;;;;;5.80;91.26;98873.41;5027012;28;20022;-77
2023/01/12 00:19:12;;;;;;;0.50;0.50;;;;;;;5.78;90.84;98878.56;5027295;28;20022;-77
2023/01/12 00:21:59;;;;;;;0.40;0.40;;;;;;;5.77;90.84;98874.31;5043226;28;20026;-77
2023/01/12 00:24:36;;;;;;;0.50;0.50;;;;;;;5.75;90.67;98877.78;5027691;28;20030;-73
2023/01/12 00:27:04;;;;;;;2.15;2.05;;;;;;;5.67;91.25;98875.31;5027854;28;20045;-74
2023/01/12 00:29:30;;;;;;;0.50;0.50;;;;;;;5.62;91.66;98870.22;5027506;28;20022;-73
2023/01/12 00:31:57;;;;;;;0.50;0.50;;;;;;;5.69;91.63;98868.41;5027867;28;20046;-73
2023/01/12 00:34:23;;;;;;;0.50;0.50;;;;;;;5.58;91.99;98866.81;5027702;28;20029;-75
2023/01/12 00:36:49;;;;;;;0.50;0.50;;;;;;;5.60;92.30;98863.38;5027999;28;20030;-77
2023/01/12 00:39:15;;;;;;;0.50;0.50;;;;;;;5.52;92.92;98855.75;5028088;28;20053;-75
2023/01/12 00:47:10;;;;;;;0.50;0.50;;;;;;;5.50;93.50;98848.06;5027464;28;20032;-78
2023/01/12 00:49:37;;;;;;;0.40;0.40;;;;;;;5.53;93.83;98844.56;5042638;28;20109;-77
2023/01/12 00:52:04;;;;;;;0.50;0.50;;;;;;;5.60;93.58;98851.38;5042564;28;20025;-77
2023/01/12 00:54:31;;;;;;;0.50;0.50;;;;;;;5.63;93.80;98845.31;5027105;28;20030;-76
2023/01/12 00:56:56;;;;;;;0.50;0.50;;;;;;;5.52;94.07;98836.03;5027336;28;20057;-77
2023/01/12 00:59:22;;;;;;;1.75;1.65;;;;;;;5.55;94.27;98827.41;5027266;28;20099;-76
2023/01/12 01:01:47;;;;;;;0.50;0.50;;;;;;;5.61;94.64;98840.19;5027383;28;20033;-76
2023/01/12 01:04:13;;;;;;;0.50;0.50;;;;;;;5.65;94.69;98841.88;5025708;28;20022;-75
2023/01/12 01:06:39;;;;;;;0.43;0.43;;;;;;;5.60;94.68;98828.19;5027066;28;20029;-75
2023/01/12 01:09:05;;;;;;;0.50;0.50;;;;;;;5.64;94.54;98827.25;5026686;28;20106;-74
2023/01/12 01:11:31;;;;;;;0.50;0.50;;;;;;;5.67;94.93;98819.50;5042174;28;20025;-75
2023/01/12 01:13:58;;;;;;;0.70;0.70;;;;;;;5.68;95.25;98816.06;5042284;28;20085;-75
2023/01/12 01:16:23;;;;;;;0.50;0.50;;;;;;;5.64;95.21;98806.66;5025649;28;20014;-76
2023/01/12 01:18:49;;;;;;;0.50;0.50;;;;;;;5.69;95.23;98809.19;5026891;28;20025;-74
2023/01/12 01:21:14;;;;;;;0.50;0.50;;;;;;;5.74;94.90;98806.53;5025424;28;20033;-73
2023/01/12 01:23:41;;;;;;;0.50;0.50;;;;;;;5.70;94.57;98804.00;5025409;28;20033;-73
2023/01/12 01:26:12;;;;;;;3.15;2.95;;;;;;;5.65;94.80;98797.22;5026473;28;20029;-75
2023/01/12 01:28:38;;;;;;;0.70;0.70;;;;;;;5.57;95.11;98800.75;5041858;28;20030;-73
2023/01/12 01:31:24;;;;;;;14.95;2.83;;;;;;;5.53;95.33;98800.81;5026555;28;20628;-75
2023/01/12 01:33:50;;;;;;;1.85;1.77;;;;;;;5.50;95.26;98806.00;5026856;28;20034;-75
2023/01/12 01:36:16;;;;;;;0.50;0.50;;;;;;;5.52;95.20;98786.25;5041872;28;20088;-74
2023/01/12 01:38:43;;;;;;;0.40;0.40;;;;;;;5.62;94.92;98795.56;5026560;28;20022;-75
2023/01/12 01:41:18;;;;;;;0.50;0.50;;;;;;;5.56;95.20;98787.91;5026009;28;20048;-75
2023/01/12 01:43:50;;;;;;;0.45;0.45;;;;;;;5.51;95.51;98776.84;5041968;28;20033;-74
2023/01/12 01:46:21;;;;;;;;;;;;;;;5.62;95.25;98777.53;5026851;28;20029;-73
2023/01/12 01:48:46;;;;;;;0.50;0.50;;;;;;;5.48;95.62;98770.00;5026373;28;19916;-74
2023/01/12 01:51:15;;;;;;;0.50;0.50;;;;;;;5.60;94.81;98771.56;5026117;28;20018;-73
2023/01/12 01:53:44;;;;;;;0.50;0.50;;;;;;;5.46;95.39;98762.28;5026112;28;20101;-74
2023/01/12 01:56:24;;;;;;;2.15;2.05;;;;;;;5.53;95.33;98770.78;5026535;28;20422;-73
2023/01/12 01:58:57;;;;;;;0.45;0.45;;;;;;;5.44;95.45;98758.03;5026498;28;20030;-75
2023/01/12 02:01:23;;;;;;;0.45;0.45;;;;;;;5.52;95.86;98761.38;5026585;28;20052;-75
2023/01/12 02:03:50;;;;;;;0.50;0.50;;;;;;;5.60;95.44;98753.53;5026012;28;20033;-76
2023/01/12 02:06:16;;;;;;;0.85;0.85;;;;;;;5.55;95.61;98765.59;5025862;28;20022;-73
2023/01/12 02:08:59;;;;;;;0.40;0.40;;;;;;;5.52;95.42;98742.50;5026016;28;20022;-75
2023/01/12 02:17:17;;;;;;;1.73;1.63;;;;;;;5.49;95.66;98739.97;5025878;28;20032;-77
2023/01/12 02:20:01;;;;;;;0.50;0.50;;;;;;;5.53;95.58;98733.88;5025615;28;20474;-76
2023/01/12 02:22:56;;;;;;;0.40;0.40;;;;;;;5.54;95.11;98727.88;5041055;28;20033;-75
2023/01/12 02:25:30;;;;;;;0.47;0.47;;;;;;;5.52;95.31;98721.91;4984108;28;20035;-77
2023/01/12 02:28:28;;;;;;;0.50;0.50;;;;;;;5.47;95.16;98714.25;4984216;28;20035;-75
2023/01/12 02:31:31;;;;;;;0.50;0.50;;;;;;;5.52;95.14;98725.31;4984266;28;20066;-77
2023/01/12 02:34:04;;;;;;;0.47;0.47;;;;;;;5.50;95.24;98726.19;4926393;29;20071;-77
2023/01/12 02:36:30;;;;;;;0.40;0.40;;;;;;;5.57;95.08;98715.78;4926486;29;20036;-76
2023/01/12 02:39:18;;;;;;;0.50;0.50;;;;;;;5.54;94.81;98721.00;4926376;29;20044;-76
2023/01/12 02:45:05;;;;;;;0.50;0.50;;;;;;;5.36;94.33;98709.25;4926279;29;20035;-76
2023/01/12 02:47:49;;;;;;;0.47;0.47;;;;;;;5.35;94.46;98711.84;4926380;29;20043;-76
2023/01/12 02:50:48;;;;;;;0.50;0.50;;;;;;;5.32;94.36;98707.59;4926513;29;20036;-75
2023/01/12 02:53:21;;;;;;;0.50;0.50;;;;;;;5.19;94.19;98712.91;4926384;29;20032;-75
2023/01/12 02:55:47;;;;;;;0.50;0.50;;;;;;;5.11;94.63;98701.03;4926149;29;20100;-75
2023/01/12 02:58:16;;;;;;;0.40;0.40;;;;;;;5.02;94.56;98697.72;4926250;29;20140;-77
2023/01/12 03:00:44;;;;;;;0.50;0.50;;;;;;;5.04;94.65;98701.13;4926208;29;20069;-75
2023/01/12 03:03:10;;;;;;;0.50;0.50;;;;;;;4.98;94.86;98710.63;4942206;29;20043;-77
2023/01/12 03:05:39;;;;;;;0.50;0.50;;;;;;;4.82;93.77;98700.53;4945336;29;20039;-75
2023/01/12 03:08:04;;;;;;;0.50;0.50;;;;;;;4.85;93.64;98708.22;4945182;29;20044;-75
2023/01/12 03:10:40;;;;;;;0.50;0.50;;;;;;;4.73;93.95;98698.91;4970302;28;20042;-75
2023/01/12 03:13:09;;;;;;;0.50;0.50;;;;;;;4.54;93.36;98701.72;5025465;28;20157;-76
2023/01/12 03:15:40;;;;;;;0.65;0.65;;;;;;;4.42;93.39;98718.13;5025330;28;20029;-73
2023/01/12 03:18:30;;;;;;;0.50;0.50;;;;;;;4.29;92.72;98701.13;5025215;28;20490;-72
2023/01/12 03:21:01;;;;;;;0.50;0.50;;;;;;;4.19;92.72;98703.78;5024692;28;20034;-75
2023/01/12 03:23:32;;;;;;;0.50;0.50;;;;;;;4.14;92.93;98697.84;5007565;28;20025;-76
2023/01/12 03:26:01;;;;;;;0.65;0.65;;;;;;;3.97;93.77;98698.00;5040111;28;20037;-73
2023/01/12 03:28:32;;;;;;;0.50;0.50;;;;;;;3.93;93.87;98688.63;5025112;28;20026;-71
2023/01/12 03:31:10;;;;;;;0.50;0.50;;;;;;;3.88;93.54;98682.69;5025488;28;20022;-74
2023/01/12 03:33:38;;;;;;;0.50;0.50;;;;;;;4.20;89.87;98687.50;5025600;28;20051;-72
2023/01/12 03:36:13;;;;;;;0.50;0.50;;;;;;;3.69;91.44;98670.84;5025412;28;20029;-71
2023/01/12 03:39:01;;;;;;;1.25;1.25;;;;;;;3.62;92.89;98652.94;5025105;28;20080;-70
2023/01/12 03:41:26;;;;;;;0.50;0.50;;;;;;;3.60;92.44;98650.41;5030550;28;20042;-70
2023/01/12 03:43:59;;;;;;;0.50;0.50;;;;;;;3.53;92.46;98644.47;5024917;28;20025;-70
2023/01/12 03:46:30;;;;;;;0.40;0.40;;;;;;;3.41;92.89;98629.16;5023580;28;20085;-71
2023/01/12 03:49:25;;;;;;;;;;;;;;;3.44;93.92;98624.88;5025380;28;20123;-70
2023/01/12 03:51:54;;;;;;;0.50;0.50;;;;;;;3.34;94.40;98620.66;5029475;28;20357;-70
2023/01/12 03:54:22;;;;;;;3.38;3.08;;;;;;;3.32;95.22;98624.97;5028469;28;20220;-71
2023/01/12 03:56:49;;;;;;;0.50;0.50;;;;;;;3.40;95.23;98612.94;5028590;28;20080;-70
2023/01/12 03:59:15;;;;;;;0.50;0.50;;;;;;;3.42;95.39;98610.38;5043717;28;20057;-70
2023/01/12 04:01:42;;;;;;;0.50;0.50;;;;;;;3.37;96.19;98606.97;5043569;28;20051;-70
2023/01/12 04:04:07;;;;;;;0.50;0.50;;;;;;;3.44;96.90;98601.78;5028536;28;20018;-70
2023/01/12 04:06:32;;;;;;;0.50;0.50;;;;;;;3.64;96.51;98587.94;5028296;28;20085;-69
2023/01/12 04:08:58;;;;;;;0.50;0.50;;;;;;;3.65;96.70;98581.94;5028265;28;20026;-69
2023/01/12 04:14:07;;;;;;;0.50;0.50;;;;;;;3.72;97.53;98590.41;5028191;28;20393;-70
2023/01/12 04:16:33;;;;;;;0.50;0.50;;;;;;;3.81;97.61;98566.38;5028099;28;20037;-69
2023/01/12 04:18:58;;;;;;;0.50;0.50;;;;;;;4.05;96.19;98572.09;5028026;28;20036;-69
2023/01/12 04:24:07;;;;;;;0.40;0.40;;;;;;;3.77;98.27;98573.25;5027761;28;20041;-68
2023/01/12 04:26:33;;;;;;;0.50;0.50;;;;;;;3.84;99.26;98579.16;5027784;28;20021;-69
2023/01/12 04:28:58;;;;;;;0.50;0.50;;;;;;;3.87;99.91;98580.84;5027940;28;20029;-68
2023/01/12 04:31:24;;;;;;;0.50;0.50;;;;;;;3.96;99.56;98571.31;5027746;28;20051;-69
2023/01/12 04:33:49;;;;;;;0.50;0.50;;;;;;;4.07;99.87;98578.91;5027877;28;20040;-68
2023/01/12 04:36:14;;;;;;;0.50;0.50;;;;;;;4.14;99.95;98577.13;5027858;28;20040;-68
2023/01/12 04:38:40;;;;;;;0.50;0.50;;;;;;;4.20;100.00;98576.22;5027836;28;20393;-67
2023/01/12 04:41:06;;;;;;;0.50;0.50;;;;;;;4.26;100.00;98562.44;5042540;28;20163;-68
2023/01/12 04:43:32;;;;;;;0.50;0.50;;;;;;;4.29;99.98;98559.84;5027772;28;20028;-67
2023/01/12 04:45:58;;;;;;;0.43;0.43;;;;;;;4.37;100.00;98570.00;5027550;28;20049;-67
2023/01/12 04:48:23;;;;;;;0.40;0.40;;;;;;;4.39;100.00;98571.72;5027631;28;20081;-67
2023/01/12 04:50:49;;;;;;;0.50;0.50;;;;;;;4.43;100.00;98575.94;5027338;28;20048;-66
2023/01/12 04:53:15;;;;;;;0.50;0.50;;;;;;;4.40;100.00;98560.56;5027387;28;20025;-66
2023/01/12 04:55:42;;;;;;;0.60;0.60;;;;;;;4.46;100.00;98560.47;5027187;28;20021;-66
2023/01/12 04:58:07;;;;;;;0.50;0.50;;;;;;;4.42;100.00;98545.97;5027408;28;20026;-66
2023/01/12 05:00:33;;;;;;;0.50;0.50;;;;;;;4.49;100.00;98564.69;5027405;28;20040;-66
2023/01/12 05:03:02;;;;;;;0.50;0.50;;;;;;;4.49;100.00;98553.59;5026957;28;20440;-67
2023/01/12 05:05:29;;;;;;;0.50;0.50;;;;;;;4.51;100.00;98562.09;5027067;28;20037;-65
2023/01/12 05:10:42;;;;;;;0.50;0.50;;;;;;;4.49;100.00;98549.28;5027141;28;20501;-67
2023/01/12 05:13:07;;;;;;;0.50;0.50;;;;;;;4.46;100.00;98547.63;5026972;28;20093;-64
2023/01/12 05:15:32;;;;;;;0.50;0.50;;;;;;;4.52;100.00;98550.97;5027089;28;20049;-64
2023/01/12 05:17:58;;;;;;;0.40;0.40;;;;;;;4.52;100.00;98549.25;5027017;28;20028;-65
2023/01/12 05:20:23;;;;;;;0.50;0.50;;;;;;;4.53;100.00;98550.97;5027121;28;20064;-66
2023/01/12 05:22:50;;;;;;;0.50;0.50;;;;;;;4.53;100.00;98544.97;5026944;28;20030;-66
2023/01/12 05:25:15;;;;;;;0.50;0.50;;;;;;;4.52;100.00;98543.28;5026736;28;20056;-67
2023/01/12 05:27:41;;;;;;;0.50;0.50;;;;;;;4.55;100.00;98538.09;5026588;28;20026;-64
2023/01/12 05:30:07;;;;;;;0.50;0.50;;;;;;;4.55;100.00;98523.50;5041790;28;20060;-64
2023/01/12 05:32:37;;;;;;;0.45;0.45;;;;;;;4.54;100.00;98529.53;5026627;28;20481;-66
2023/01/12 05:35:05;;;;;;;0.43;0.43;;;;;;;4.56;100.00;98527.78;5026511;28;20033;-64
2023/01/12 05:37:30;;;;;;;0.50;0.50;;;;;;;4.56;100.00;98537.22;5026709;28;20073;-66
2023/01/12 05:39:55;;;;;;;0.50;0.50;;;;;;;4.57;100.00;98531.19;5026090;28;20057;-66
2023/01/12 05:45:06;;;;;;;0.50;0.50;;;;;;;4.60;100.00;98528.56;5026286;28;20060;-66
2023/01/12 05:47:32;;;;;;;0.50;0.50;;;;;;;4.57;100.00;98526.91;5026473;28;20032;-66
2023/01/12 05:49:57;;;;;;;0.50;0.50;;;;;;;4.57;100.00;98518.34;5026376;28;20029;-65
2023/01/12 05:52:23;;;;;;;0.50;0.50;;;;;;;4.61;100.00;98532.84;5026762;28;20026;-65
2023/01/12 05:54:48;;;;;;;0.50;0.50;;;;;;;4.61;100.00;98532.84;5026232;28;20489;-66
2023/01/12 05:57:14;;;;;;;0.50;0.50;;;;;;;4.62;100.00;98539.69;5026515;28;20094;-66
2023/01/12 05:59:39;;;;;;;0.50;0.50;;;;;;;4.57;100.00;98511.47;5026160;28;20470;-66
2023/01/12 06:02:04;;;;;;;0.50;0.50;;;;;;;4.64;100.00;98525.09;5026251;28;20049;-66
2023/01/12 06:04:30;;;;;;;0.50;0.50;;;;;;;4.62;100.00;98523.44;5026359;28;20036;-66
2023/01/12 06:06:55;;;;;;;0.50;0.50;;;;;;;4.66;100.00;98528.50;5026305;28;20033;-66
2023/01/12 06:09:21;;;;;;;0.40;0.40;;;;;;;4.71;100.00;98529.28;5025810;28;20021;-66
2023/01/12 06:14:30;;;;;;;0.40;0.40;;;;;;;4.76;100.00;98525.78;5026021;28;20024;-68
2023/01/12 06:16:55;;;;;;;0.50;0.50;;;;;;;4.76;100.00;98520.66;5025568;28;20021;-67
2023/01/12 06:19:20;;;;;;;0.50;0.50;;;;;;;4.75;100.00;98513.78;5026035;28;20026;-67
2023/01/12 06:21:46;;;;;;;0.50;0.50;;;;;;;4.74;100.00;98512.09;5025827;28;20034;-67
2023/01/12 06:24:11;;;;;;;0.43;0.43;;;;;;;4.70;100.00;98527.56;5025941;28;20045;-67
2023/01/12 06:26:37;;;;;;;0.50;0.50;;;;;;;4.69;100.00;98515.59;5025791;28;20026;-67
2023/01/12 06:29:05;;;;;;;0.50;0.50;;;;;;;4.70;100.00;98516.44;5025795;28;20025;-67
2023/01/12 06:31:31;;;;;;;0.50;0.50;;;;;;;4.69;100.00;98515.59;5025233;28;20125;-67
2023/01/12 06:33:56;;;;;;;0.50;0.50;;;;;;;4.69;100.00;98515.59;5026025;28;20049;-67
2023/01/12 06:36:22;;;;;;;0.50;0.50;;;;;;;4.70;100.00;98513.88;5025710;28;20014;-66
2023/01/12 06:38:47;;;;;;;0.50;0.50;;;;;;;4.70;100.00;98527.56;5025602;28;20053;-68
2023/01/12 06:43:57;;;;;;;0.50;0.50;;;;;;;4.70;100.00;98517.28;5025647;28;20032;-66
2023/01/12 06:46:24;;;;;;;0.50;0.50;;;;;;;4.71;100.00;98518.97;5025405;28;20462;-66
2023/01/12 06:48:49;;;;;;;0.50;0.50;;;;;;;4.73;100.00;98523.28;5024287;28;20482;-66
2023/01/12 06:51:14;;;;;;;0.50;0.50;;;;;;;4.71;100.00;98528.44;5024944;28;20036;-68
2023/01/12 06:53:40;;;;;;;0.50;0.50;;;;;;;4.70;100.00;98535.28;5025412;28;20032;-67
2023/01/12 06:56:05;;;;;;;0.50;0.50;;;;;;;4.68;100.00;98524.16;5025312;28;20017;-66
2023/01/12 06:58:31;;;;;;;0.50;0.50;;;;;;;4.74;100.00;98532.69;5024059;28;20060;-68
2023/01/12 07:01:01;;;;;;;0.50;0.50;;;;;;;4.73;100.00;98533.56;5023977;28;20095;-68
2023/01/12 07:03:26;;;;;;;0.50;0.50;;;;;;;4.74;100.00;98527.53;5025270;28;20033;-70
2023/01/12 07:05:51;;;;;;;0.50;0.50;;;;;;;4.76;100.00;98533.50;5025223;28;20022;-70
2023/01/12 07:08:18;;;;;;;0.50;0.50;;;;;;;4.71;100.00;98523.28;5025338;28;20030;-70
2023/01/12 07:10:44;;;;;;;0.50;0.50;;;;;;;4.74;100.00;98537.81;5040058;28;20042;-67
2023/01/12 07:13:09;;;;;;;0.50;0.50;;;;;;;4.71;100.00;98534.41;5025152;28;20026;-69
2023/01/12 07:15:35;;;;;;;0.50;0.50;;;;;;;4.73;100.00;98530.97;5025306;28;20054;-71
2023/01/12 07:18:00;;;;;;;0.50;0.50;;;;;;;4.73;100.00;98530.97;5025186;28;20041;-68
2023/01/12 07:20:27;;;;;;;0.50;0.50;;;;;;;4.74;100.00;98535.25;5025222;28;20025;-68
2023/01/12 07:22:54;;;;;;;0.50;0.50;;;;;;;4.76;100.00;98536.09;5025250;28;20029;-68
2023/01/12 07:25:20;;;;;;;0.50;0.50;;;;;;;4.77;100.00;98538.63;5040182;28;20026;-68
2023/01/12 07:27:52;;;;;;;0.50;0.50;;;;;;;4.77;100.00;98542.91;5028004;28;20028;-68
2023/01/12 07:30:20;;;;;;;0.50;0.50;;;;;;;4.78;100.00;98550.59;5029039;28;20026;-68
2023/01/12 07:32:46;;;;;;;0.50;0.50;;;;;;;4.78;100.00;98547.16;5029305;28;20034;-69
2023/01/12 07:35:12;;;;;;;0.50;0.50;;;;;;;4.78;100.00;98550.59;5029123;28;20022;-67
2023/01/12 07:37:37;;;;;;;0.50;0.50;;;;;;;4.75;100.00;98549.78;5028999;28;20025;-69
2023/01/12 07:40:03;;;;;;;0.50;0.50;;;;;;;4.76;100.00;98560.06;5028531;28;20104;-67
2023/01/12 07:42:28;;;;;;;0.50;0.50;;;;;;;4.76;100.00;98561.78;5028986;28;20054;-67
2023/01/12 07:44:54;;;;;;;0.50;0.50;;;;;;;4.76;100.00;98560.06;5028895;28;20445;-67
2023/01/12 07:47:19;;;;;;;0.50;0.50;;;;;;;4.76;100.00;98560.06;5028747;28;20180;-68
2023/01/12 07:49:45;;;;;;;0.50;0.50;;;;;;;4.74;100.00;98561.81;5044001;28;20037;-68
2023/01/12 07:52:11;;;;;;;0.50;0.50;;;;;;;4.74;100.00;98563.53;5028656;28;20022;-67
2023/01/12 07:54:37;;;;;;;0.40;0.40;;;;;;;4.74;100.00;98564.38;5028537;28;20045;-67
2023/01/12 07:57:03;;;;;;;0.50;0.50;;;;;;;4.73;100.00;98566.97;5028794;28;20029;-67
2023/01/12 07:59:28;;;;;;;0.50;0.50;;;;;;;4.73;100.00;98561.84;5028490;28;20033;-67
2023/01/12 08:01:54;;;;;;;0.50;0.50;;;;;;;4.73;100.00;98561.84;5028546;28;20022;-68
2023/01/12 08:04:21;;;;;;;0.50;0.50;;;;;;;4.72;100.00;98571.25;5028564;28;20026;-68
2023/01/12 08:06:47;;;;;;;0.50;0.50;;;;;;;4.72;100.00;98573.81;5028451;28;20086;-67
2023/01/12 08:09:12;;;;;;;0.50;0.50;;;;;;;4.76;100.00;98566.94;5028572;28;20025;-67
2023/01/12 08:11:38;;;;;;;0.50;0.50;;;;;;;4.75;100.00;98566.06;5028152;28;20030;-68
2023/01/12 08:14:04;;;;;;;0.50;0.50;;;;;;;4.76;100.00;98569.50;5028182;28;20021;-67
2023/01/12 08:16:42;;;;;;;0.50;0.50;;;;;;;4.73;100.00;98566.97;5027989;28;20022;-68
2023/01/12 08:19:17;;;;;;;0.60;0.60;;;;;;;4.74;100.00;98568.66;5028262;28;20036;-67
2023/01/12 08:21:51;;;;;;;0.60;0.60;;;;;;;4.70;100.00;98553.28;5028067;28;20037;-67
2023/01/12 08:24:22;;;;;;;0.50;0.50;;;;;;;4.73;100.00;98577.25;5028190;28;20021;-66
2023/01/12 08:26:52;;;;;;;0.50;0.50;;;;;;;4.68;100.00;98560.16;5026774;28;20110;-67
2023/01/12 08:29:30;;;;;;;0.50;0.50;;;;;;;4.69;100.00;98576.44;5043372;28;20053;-67
2023/01/12 08:32:03;;;;;;;0.50;0.50;;;;;;;4.70;100.00;98566.13;5028087;28;20021;-66
2023/01/12 08:34:29;;;;;;;0.50;0.50;;;;;;;4.71;100.00;98572.13;5028068;28;20053;-67
2023/01/12 08:36:57;;;;;;;0.50;0.50;;;;;;;4.70;100.00;98573.84;5027857;28;20056;-67
2023/01/12 08:39:22;;;;;;;0.43;0.43;;;;;;;4.71;100.00;98574.72;5026754;28;20036;-67
2023/01/12 08:41:48;;;;;;;0.50;0.50;;;;;;;4.66;100.00;98569.63;5026501;28;20033;-67
2023/01/12 08:44:14;;;;;;;0.50;0.50;;;;;;;4.69;100.00;98579.88;5027788;28;20029;-67
2023/01/12 08:46:51;;;;;;;0.50;0.50;;;;;;;4.74;100.00;98594.38;5027711;28;20030;-68
2023/01/12 08:49:19;;;;;;;0.50;0.50;;;;;;;4.74;100.00;98584.09;5027722;28;20029;-67
2023/01/12 08:51:44;;;;;;;0.50;0.50;;;;;;;4.70;100.00;98589.28;5027644;28;20097;-68
2023/01/12 08:54:11;;;;;;;0.40;0.40;;;;;;;4.68;100.00;98591.00;5042944;28;20017;-68
2023/01/12 08:56:37;;;;;;;0.40;0.40;;;;;;;4.66;100.00;98576.50;5027554;28;20036;-68
2023/01/12 08:59:03;;;;;;;0.50;0.50;;;;;;;4.66;100.00;98585.06;5027496;28;20065;-68
2023/01/12 09:01:28;;;;;;;0.50;0.50;;;;;;;4.64;100.00;98583.34;5027384;28;20041;-67
2023/01/12 09:03:57;;;;;;;0.50;0.50;;;;;;;4.67;100.00;98579.03;5027487;28;20025;-67
2023/01/12 09:06:25;;;;;;;0.50;0.50;;;;;;;4.66;100.00;98577.34;5027322;28;20030;-66
2023/01/12 09:08:55;;;;;;;0.50;0.50;;;;;;;4.65;100.00;98580.78;5027286;28;20021;-67
2023/01/12 09:11:22;;;;;;;0.50;0.50;;;;;;;4.70;100.00;98579.00;5025908;28;20106;-67
2023/01/12 09:13:48;;;;;;;0.50;0.50;;;;;;;4.69;100.00;98579.88;5027261;28;20053;-68
2023/01/12 09:16:15;;;;;;;0.50;0.50;;;;;;;4.70;100.00;98581.56;5027044;28;20097;-67
2023/01/12 09:18:41;;;;;;;0.50;0.50;;;;;;;4.75;100.00;98588.34;5026954;28;20033;-67
2023/01/12 09:21:15;;;;;;;0.50;0.50;;;;;;;4.77;100.00;98584.91;5026944;28;20022;-66
2023/01/12 09:23:41;;;;;;;0.50;0.50;;;;;;;4.77;100.00;98587.47;5042219;28;20049;-66
2023/01/12 09:26:18;;;;;;;0.50;0.50;;;;;;;4.78;100.00;98591.75;5026815;28;20022;-67
2023/01/12 09:28:45;;;;;;;0.50;0.50;;;;;;;4.81;100.00;98583.13;5026995;28;20034;-66
2023/01/12 09:31:14;;;;;;;0.50;0.50;;;;;;;4.82;100.00;98593.38;5025574;28;20026;-66
2023/01/12 09:33:40;;;;;;;0.50;0.50;;;;;;;4.83;100.00;98594.25;5026890;28;20081;-67
2023/01/12 09:36:09;;;;;;;0.50;0.50;;;;;;;4.86;100.00;98607.06;5026836;28;20032;-66
2023/01/12 09:38:39;;;;;;;0.50;0.50;;;;;;;4.86;100.00;98601.91;5026804;28;20018;-66
2023/01/12 09:47:40;;;;;;;0.50;0.50;;;;;;;4.90;100.00;98595.88;5026488;28;20119;-66
2023/01/12 09:50:15;;;;;;;0.50;0.50;;;;;;;4.93;100.00;98598.41;5026432;28;20029;-65
2023/01/12 09:52:48;;;;;;;0.50;0.50;;;;;;;4.95;100.00;98594.06;5026519;28;20022;-65
2023/01/12 09:55:18;;;;;;;0.50;0.50;;;;;;;4.98;100.00;98600.91;5026477;28;20060;-65
2023/01/12 09:58:25;;;;;;;0.50;0.50;;;;;;;5.02;100.00;98593.97;5026379;28;20044;-65
2023/01/12 10:00:55;;;;;;;0.50;0.50;;;;;;;5.08;100.00;98593.88;5026355;28;20022;-65
2023/01/12 10:03:37;;;;;;;0.50;0.50;;;;;;;5.11;100.00;98604.16;5026210;28;20029;-65
2023/01/12 10:06:04;;;;;;;0.60;0.60;;;;;;;5.14;100.00;98598.94;5026315;28;20025;-65
2023/01/12 10:08:54;;;;;;;0.50;0.50;;;;;;;5.17;100.00;98596.31;5026287;28;20122;-65
2023/01/12 10:11:47;;;;;;;0.50;0.50;;;;;;;5.21;100.00;98605.69;5025884;28;20076;-66
2023/01/12 10:14:18;;;;;;;0.50;0.50;;;;;;;5.21;100.00;98597.09;5025915;28;20025;-65
2023/01/12 10:16:44;;;;;;;0.65;0.65;;;;;;;5.19;100.00;98599.69;5026142;28;20030;-66
2023/01/12 10:19:26;;;;;;;0.50;0.50;;;;;;;5.21;100.00;98594.53;5025929;28;20044;-67
2023/01/12 10:21:52;;;;;;;0.50;0.50;;;;;;;5.21;100.00;98587.69;5025765;28;20022;-66
2023/01/12 10:24:21;;;;;;;0.50;0.50;;;;;;;5.22;100.00;98580.81;5025834;28;20025;-66
2023/01/12 10:27:01;;;;;;;0.50;0.50;;;;;;;5.22;100.00;98580.81;5025489;28;20018;-66
2023/01/12 10:29:27;;;;;;;0.50;0.50;;;;;;;5.23;100.00;98571.34;5025811;28;20033;-66
2023/01/12 10:31:53;;;;;;;0.45;0.45;;;;;;;5.23;100.00;98579.06;5025727;28;20018;-67
2023/01/12 10:34:18;;;;;;;0.50;0.50;;;;;;;5.25;100.00;98574.75;5025859;28;20040;-68
2023/01/12 10:36:48;;;;;;;0.50;0.50;;;;;;;5.25;100.00;98575.63;5025787;28;20028;-69
2023/01/12 10:39:30;;;;;;;0.50;0.50;;;;;;;5.27;100.00;98570.44;5025729;28;20025;-69
2023/01/12 10:45:22;;;;;;;0.50;0.50;;;;;;;5.27;100.00;98567.88;5025869;28;20082;-71
2023/01/12 10:47:49;;;;;;;0.50;0.50;;;;;;;5.28;100.00;98569.56;5025804;28;20114;-73
2023/01/12 10:50:30;;;;;;;0.50;0.50;;;;;;;5.30;100.00;98557.53;5024484;28;20022;-73
2023/01/12 10:53:14;;;;;;;0.50;0.50;;;;;;;5.26;100.00;98550.72;5040907;28;20026;-72
2023/01/12 10:55:41;;;;;;;0.50;0.50;;;;;;;5.32;100.00;98555.75;5025561;28;20093;-72
2023/01/12 10:58:24;;;;;;;0.50;0.50;;;;;;;5.34;100.00;98551.44;5040900;28;20021;-71
2023/01/12 11:00:52;;;;;;;0.40;0.40;;;;;;;5.35;100.00;98540.28;5040573;28;20022;-69
2023/01/12 11:03:38;;;;;;;0.50;0.50;;;;;;;5.37;100.00;98548.81;5040507;28;20120;-69
2023/01/12 11:06:25;;;;;;;0.50;0.50;;;;;;;5.35;100.00;98536.88;5040718;28;20026;-69
2023/01/12 11:08:52;;;;;;;0.50;0.50;;;;;;;5.30;100.00;98534.38;5025657;28;20053;-70
2023/01/12 11:11:31;;;;;;;0.40;0.40;;;;;;;5.27;100.00;98544.72;5025263;28;20018;-69
2023/01/12 11:14:03;;;;;;;0.50;0.50;;;;;;;5.21;100.00;98536.22;5025533;28;20029;-69
2023/01/12 11:16:37;;;;;;;0.50;0.50;;;;;;;5.15;100.00;98528.59;5025580;28;20418;-69
2023/01/12 11:19:02;;;;;;;0.50;0.50;;;;;;;5.14;100.00;98526.06;5025674;28;20030;-69
2023/01/12 11:21:35;;;;;;;0.47;0.47;;;;;;;5.05;100.00;98515.03;5041689;28;20088;-70
2023/01/12 11:24:13;;;;;;;0.50;0.50;;;;;;;5.05;100.00;98522.75;5025406;28;20486;-70
2023/01/12 11:26:48;;;;;;;0.50;0.50;;;;;;;5.06;100.00;98521.03;5025306;28;20041;-69
2023/01/12 11:29:40;;;;;;;0.50;0.50;;;;;;;5.00;100.00;98513.44;5025348;28;20022;-69
2023/01/12 11:32:14;;;;;;;0.50;0.50;;;;;;;4.96;100.00;98498.06;5025237;28;20029;-69
2023/01/12 11:34:53;;;;;;;0.50;0.50;;;;;;;4.93;100.00;98500.69;5040490;28;20022;-69
2023/01/12 11:37:19;;;;;;;0.50;0.50;;;;;;;4.96;100.00;98494.63;5025277;28;20093;-69
2023/01/12 11:39:51;;;;;;;0.50;0.50;;;;;;;4.95;100.00;98508.38;5024750;28;20068;-70
2023/01/12 11:45:13;;;;;;;0.50;0.50;;;;;;;4.85;100.00;98489.66;5025403;28;20037;-70
2023/01/12 11:47:43;;;;;;;0.50;0.50;;;;;;;4.91;100.00;98492.13;5040391;28;20049;-69
2023/01/12 11:50:31;;;;;;;0.50;0.50;;;;;;;4.92;100.00;98488.66;5040506;28;20103;-70
2023/01/12 11:52:57;;;;;;;0.50;0.50;;;;;;;4.91;100.00;98492.13;5040281;28;20030;-68
2023/01/12 11:56:01;;;;;;;0.50;0.50;;;;;;;4.93;100.00;98495.53;5039955;28;20117;-68
2023/01/12 11:58:51;;;;;;;0.50;0.50;;;;;;;4.92;100.00;98493.81;4983636;28;20061;-67
2023/01/12 12:01:29;;;;;;;0.50;0.50;;;;;;;4.93;100.00;98492.09;4983666;28;20030;-68
2023/01/12 12:04:07;;;;;;;0.50;0.50;;;;;;;4.92;100.00;98482.69;4967178;28;20541;-68
2023/01/12 12:06:55;;;;;;;0.50;0.50;;;;;;;4.89;100.00;98483.56;4984049;28;20050;-67
2023/01/12 12:09:47;;;;;;;0.50;0.50;;;;;;;4.84;100.00;98481.09;4983991;28;20047;-68
2023/01/12 12:12:28;;;;;;;0.60;0.60;;;;;;;4.88;100.00;98484.47;4986202;28;20058;-69
2023/01/12 12:15:23;;;;;;;0.50;0.50;;;;;;;4.89;100.00;98487.88;4986255;28;20035;-69
2023/01/12 12:18:14;;;;;;;0.50;0.50;;;;;;;4.88;100.00;98478.47;4979194;28;20035;-70
2023/01/12 12:21:08;;;;;;;0.50;0.50;;;;;;;4.88;100.00;98481.03;4986622;28;20038;-69
2023/01/12 12:23:36;;;;;;;0.50;0.50;;;;;;;4.90;100.00;98479.28;4986775;28;20031;-71
2023/01/12 12:26:07;;;;;;;0.50;0.50;;;;;;;4.91;100.00;98486.97;4986676;28;20046;-70
2023/01/12 12:28:32;;;;;;;0.50;0.50;;;;;;;4.94;100.00;98478.34;4995798;28;20030;-70
2023/01/12 12:31:10;;;;;;;0.50;0.50;;;;;;;4.94;100.00;98483.50;5028264;28;20124;-71
2023/01/12 12:34:00;;;;;;;0.50;0.50;;;;;;;4.94;100.00;98465.50;5028247;28;20017;-69
2023/01/12 12:36:41;;;;;;;0.50;0.50;;;;;;;4.91;100.00;98458.69;5043304;28;20037;-69